Time;durP1;ratioP1;P1;durP2;ratioP2;P2;SDS_P1;SDS_P2;PMS_P1;PMS_P2;Temp;Humidity;BMP_temperature;BMP_pressure;BME280_temperature;BME280_humidity;BME280_pressure;Samples;Min_cycle;Max_cycle;Signal;HPM_P1;HPM_P2
2022/05/16 00:01:28;;;;;;;;;;;;;;;22.57;40.86;101835.81;5087774;28;19916;-60
2022/05/16 00:03:57;;;;;;;;;;;;;;;22.57;41.12;101835.81;5058340;28;19912;-60
2022/05/16 00:06:22;;;;;;;;;;;;;;;22.56;41.15;101836.66;5087521;28;19918;-60
2022/05/16 00:08:47;;;;;;;;;;;;;;;22.57;40.95;101841.06;5068423;28;19916;-59
2022/05/16 00:11:12;;;;;;;;;;;;;;;22.56;41.13;101844.53;5071185;28;19927;-61
2022/05/16 00:13:38;;;;;;;;;;;;;;;22.55;41.62;101843.66;5064893;28;19965;-60
2022/05/16 00:16:03;;;;;;;;;;;;;;;22.57;41.19;101841.06;5051008;28;19916;-59
2022/05/16 00:18:28;;;;;;;;;;;;;;;22.56;41.19;101849.78;5086735;28;19916;-60
2022/05/16 00:20:53;;;;;;;;;;;;;;;22.55;41.13;101837.53;5064391;28;20338;-60
2022/05/16 00:23:19;;;;;;;;;;;;;;;22.56;41.09;101845.44;5074485;28;20348;-59
2022/05/16 00:25:44;;;;;;;;;;;;;;;22.55;40.97;101842.78;5066013;28;19916;-61
2022/05/16 00:28:09;;;;;;;;;;;;;;;22.55;40.93;101853.28;5065746;28;19919;-60
2022/05/16 00:30:34;;;;;;;;;;;;;;;22.55;40.93;101858.53;5070553;28;19920;-60
2022/05/16 00:33:00;;;;;;;;;;;;;;;22.55;41.20;101856.78;5071072;28;19916;-61
2022/05/16 00:35:25;;;;;;;;;;;;;;;22.55;40.93;101853.28;5068572;28;19923;-60
2022/05/16 00:37:50;;;;;;;;;;;;;;;22.55;41.31;101858.53;5086368;28;19928;-60
2022/05/16 00:40:15;;;;;;;;;;;;;;;22.55;41.00;101855.91;5057036;28;19916;-60
2022/05/16 00:42:41;;;;;;;;;;;;;;;22.54;41.10;101856.75;5068493;28;19964;-59
2022/05/16 00:45:07;;;;;;;;;;;;;;;22.55;41.21;101863.78;5049788;28;19920;-61
2022/05/16 00:47:32;;;;;;;;;;;;;;;22.54;41.06;101857.66;5066025;28;20011;-59
2022/05/16 00:49:58;;;;;;;;;;;;;;;22.54;41.14;101859.38;5045140;28;20435;-61
2022/05/16 00:52:23;;;;;;;;;;;;;;;22.53;41.26;101860.22;5066534;28;19999;-59
2022/05/16 00:54:54;;;;;;;;;;;;;;;22.53;41.19;101850.63;5066882;28;19959;-60
2022/05/16 00:57:20;;;;;;;;;;;;;;;22.53;40.97;101849.72;5051081;28;20373;-58
2022/05/16 01:00:15;;;;;;;;;;;;;;;22.53;41.17;101845.38;5070786;28;19959;-59
2022/05/16 01:05:25;;;;;;;;;;;;;;;22.53;41.34;101844.47;5069238;28;20390;-60
2022/05/16 01:07:50;;;;;;;;;;;;;;;22.53;41.15;101844.47;5054501;28;19947;-62
2022/05/16 01:10:19;;;;;;;;;;;;;;;22.54;41.18;101841.00;5069966;28;19920;-59
2022/05/16 01:12:45;;;;;;;;;;;;;;;22.54;41.19;101830.50;5044726;28;20007;-62
2022/05/16 01:15:12;;;;;;;;;;;;;;;22.55;41.15;101832.25;5051645;28;19951;-63
2022/05/16 01:17:37;;;;;;;;;;;;;;;22.53;41.23;101823.47;5061088;28;20360;-60
2022/05/16 01:20:03;;;;;;;;;;;;;;;22.54;41.14;101820.00;5066431;28;19916;-62
2022/05/16 01:22:36;;;;;;;;;;;;;;;22.53;41.13;101818.22;5070467;28;20002;-61
2022/05/16 01:25:04;;;;;;;;;;;;;;;22.53;41.00;101819.13;5055921;28;19916;-60
2022/05/16 01:27:38;;;;;;;;;;;;;;;22.52;41.22;101814.75;5062261;28;19916;-59
2022/05/16 01:30:04;;;;;;;;;;;;;;;22.53;41.09;101812.97;5066132;28;19916;-59
2022/05/16 01:32:29;;;;;;;;;;;;;;;22.52;41.16;101805.97;5074669;28;19916;-61
2022/05/16 01:34:54;;;;;;;;;;;;;;;22.51;41.20;101798.94;5054625;28;19921;-58
2022/05/16 01:38:18;;;;;;;;;;;;;;;22.51;41.18;101793.69;5091196;28;20227;-59
2022/05/16 01:40:05;;;;;;;;;;;;;;;22.52;41.18;101792.84;5088674;28;19916;-62
2022/05/16 01:42:30;;;;;;;;;;;;;;;22.53;41.03;101797.22;5055990;28;20110;-58
2022/05/16 01:44:55;;;;;;;;;;;;;;;22.52;41.11;101790.22;5045003;28;20019;-60
2022/05/16 01:47:23;;;;;;;;;;;;;;;22.53;41.14;101805.09;5056865;28;20014;-58
2022/05/16 01:49:48;;;;;;;;;;;;;;;22.52;41.04;101795.47;5075665;28;19916;-60
2022/05/16 01:52:13;;;;;;;;;;;;;;;22.51;41.12;101777.94;5075276;28;19941;-60
2022/05/16 01:54:39;;;;;;;;;;;;;;;22.51;41.30;101783.19;5067688;28;19916;-60
2022/05/16 01:57:04;;;;;;;;;;;;;;;22.52;41.15;101780.59;5091387;28;19917;-60
2022/05/16 01:59:31;;;;;;;;;;;;;;;22.52;41.10;101774.47;5087678;28;20276;-60
2022/05/16 02:01:57;;;;;;;;;;;;;;;22.50;41.23;101770.91;5053255;28;20349;-59
2022/05/16 02:04:22;;;;;;;;;;;;;;;22.50;41.36;101765.69;5070009;28;19995;-59
2022/05/16 02:06:47;;;;;;;;;;;;;;;22.49;41.02;101764.81;5052671;28;19941;-63
2022/05/16 02:09:13;;;;;;;;;;;;;;;22.49;41.11;101764.81;5068857;28;19920;-60
2022/05/16 02:11:38;;;;;;;;;;;;;;;22.49;41.13;101769.16;5074380;28;20391;-62
2022/05/16 02:14:03;;;;;;;;;;;;;;;22.50;40.88;101770.91;5056994;28;19923;-62
2022/05/16 02:16:29;;;;;;;;;;;;;;;22.51;41.23;101767.44;5081704;28;20026;-60
2022/05/16 02:18:54;;;;;;;;;;;;;;;22.51;41.20;101777.94;5070504;28;19975;-61
2022/05/16 02:26:50;;;;;;;;;;;;;;;22.52;41.18;101763.97;5091430;28;19965;-60
2022/05/16 02:29:16;;;;;;;;;;;;;;;22.51;41.15;101767.44;5053387;28;19966;-60
2022/05/16 02:31:41;;;;;;;;;;;;;;;22.51;41.03;101762.19;5070429;28;19920;-60
2022/05/16 02:34:07;;;;;;;;;;;;;;;22.50;40.97;101755.16;5052121;28;19988;-59
2022/05/16 02:36:32;;;;;;;;;;;;;;;22.50;41.12;101749.91;5052198;28;19920;-59
2022/05/16 02:38:57;;;;;;;;;;;;;;;22.49;41.24;101751.69;5051168;28;19916;-60
2022/05/16 02:41:22;;;;;;;;;;;;;;;22.50;41.10;101755.16;5055877;28;19920;-61
2022/05/16 02:43:50;;;;;;;;;;;;;;;22.50;41.14;101756.06;5071527;28;19915;-59
2022/05/16 02:46:16;;;;;;;;;;;;;;;22.49;40.98;101750.78;5075821;28;19920;-59
2022/05/16 02:48:42;;;;;;;;;;;;;;;22.49;41.03;101758.66;5052701;28;19915;-60
2022/05/16 02:51:07;;;;;;;;;;;;;;;22.49;41.11;101758.66;5067616;28;19920;-60
2022/05/16 02:53:32;;;;;;;;;;;;;;;22.50;41.09;101749.91;5088074;28;20006;-59
2022/05/16 02:56:01;;;;;;;;;;;;;;;22.49;40.91;101748.16;5051361;28;19923;-60
2022/05/16 02:58:26;;;;;;;;;;;;;;;22.50;40.91;101749.91;5048866;28;19916;-60
2022/05/16 03:00:52;;;;;;;;;;;;;;;22.50;40.91;101749.91;5070575;28;20017;-61
2022/05/16 03:03:17;;;;;;;;;;;;;;;22.50;41.02;101755.16;5069620;28;19920;-61
2022/05/16 03:05:43;;;;;;;;;;;;;;;22.49;41.13;101745.53;5072401;28;20275;-59
2022/05/16 03:08:08;;;;;;;;;;;;;;;22.49;41.04;101740.28;5068162;28;20054;-59
2022/05/16 03:10:33;;;;;;;;;;;;;;;22.48;41.16;101731.53;5094150;28;20350;-60
2022/05/16 03:12:58;;;;;;;;;;;;;;;22.47;41.18;101730.63;5088674;28;19924;-61
2022/05/16 03:15:24;;;;;;;;;;;;;;;22.49;41.04;101737.66;5069267;28;19930;-59
2022/05/16 03:17:49;;;;;;;;;;;;;;;22.49;41.24;101737.66;5074372;28;19923;-59
2022/05/16 03:20:15;;;;;;;;;;;;;;;22.47;41.15;101741.13;5089573;28;19920;-59
2022/05/16 03:22:41;;;;;;;;;;;;;;;22.49;41.17;101740.28;5053489;28;19930;-59
2022/05/16 03:25:09;;;;;;;;;;;;;;;22.47;41.18;101741.13;5085999;28;19942;-60
2022/05/16 03:27:34;;;;;;;;;;;;;;;22.49;41.07;101737.66;5091051;28;19916;-59
2022/05/16 03:30:00;;;;;;;;;;;;;;;22.49;41.05;101732.41;5071580;28;19916;-59
2022/05/16 03:32:25;;;;;;;;;;;;;;;22.47;40.97;101730.63;5073677;28;19916;-59
2022/05/16 03:34:53;;;;;;;;;;;;;;;22.47;41.17;101720.13;5047647;28;20025;-59
2022/05/16 03:37:18;;;;;;;;;;;;;;;22.49;41.04;101727.16;5051406;28;19916;-60
2022/05/16 03:42:30;;;;;;;;;;;;;;;22.49;41.18;101732.41;5074566;28;19923;-59
2022/05/16 03:44:55;;;;;;;;;;;;;;;22.49;41.07;101737.66;5073926;28;19920;-59
2022/05/16 03:47:21;;;;;;;;;;;;;;;22.50;40.97;101742.06;5088930;28;19916;-59
2022/05/16 03:49:48;;;;;;;;;;;;;;;22.49;40.94;101729.78;5073882;28;19962;-63
2022/05/16 03:52:14;;;;;;;;;;;;;;;22.49;41.16;101733.31;5051867;28;19955;-59
2022/05/16 03:54:40;;;;;;;;;;;;;;;22.49;40.82;101732.41;5072040;28;19954;-60
2022/05/16 03:57:05;;;;;;;;;;;;;;;22.49;40.82;101727.16;5061254;28;20245;-60
2022/05/16 03:59:31;;;;;;;;;;;;;;;22.49;40.98;101730.69;5069389;28;20019;-60
2022/05/16 04:01:56;;;;;;;;;;;;;;;22.50;41.05;101734.16;5063701;28;20311;-60
2022/05/16 04:04:21;;;;;;;;;;;;;;;22.52;41.10;101727.22;5046028;28;19916;-59
2022/05/16 04:06:46;;;;;;;;;;;;;;;22.50;41.02;101716.69;5054625;28;19924;-61
2022/05/16 04:09:12;;;;;;;;;;;;;;;22.50;40.87;101724.56;5080969;28;19915;-59
2022/05/16 04:11:37;;;;;;;;;;;;;;;22.51;41.08;101717.56;5066382;28;20349;-60
2022/05/16 04:14:02;;;;;;;;;;;;;;;22.51;41.04;101725.44;5069099;28;20395;-62
2022/05/16 04:16:28;;;;;;;;;;;;;;;22.51;41.05;101730.69;5065421;28;20384;-60
2022/05/16 04:18:53;;;;;;;;;;;;;;;22.52;40.92;101724.59;5059487;28;19916;-60
2022/05/16 04:21:18;;;;;;;;;;;;;;;22.52;40.75;101716.72;5062075;28;19923;-59
2022/05/16 04:23:43;;;;;;;;;;;;;;;22.52;40.88;101711.47;5053686;28;20006;-60
2022/05/16 04:26:08;;;;;;;;;;;;;;;22.52;40.68;101711.47;5079620;28;19922;-60
2022/05/16 04:28:34;;;;;;;;;;;;;;;22.52;41.04;101706.22;5060815;28;20018;-59
2022/05/16 04:30:59;;;;;;;;;;;;;;;22.52;41.09;101711.47;5043907;28;19966;-61
2022/05/16 04:33:24;;;;;;;;;;;;;;;22.54;40.90;101715.00;5050447;28;19924;-60
2022/05/16 04:35:49;;;;;;;;;;;;;;;22.53;40.82;101710.59;5070348;28;19928;-60
2022/05/16 04:38:15;;;;;;;;;;;;;;;22.54;40.81;101709.75;5068101;28;19915;-59
2022/05/16 04:43:24;;;;;;;;;;;;;;;22.53;40.90;101692.22;5070609;28;19962;-59
2022/05/16 04:45:49;;;;;;;;;;;;;;;22.54;40.97;101699.25;5063252;28;19920;-62
2022/05/16 04:48:17;;;;;;;;;;;;;;;22.54;41.07;101709.75;5066706;28;20269;-59
2022/05/16 04:50:42;;;;;;;;;;;;;;;22.54;41.01;101717.63;5050871;28;19950;-59
2022/05/16 04:53:07;;;;;;;;;;;;;;;22.54;41.03;101725.50;5067202;28;19959;-61
2022/05/16 04:55:32;;;;;;;;;;;;;;;22.54;40.92;101725.50;5045906;28;20021;-59
2022/05/16 04:57:58;;;;;;;;;;;;;;;22.53;41.21;101719.38;5048626;28;19924;-60
2022/05/16 05:00:23;;;;;;;;;;;;;;;22.55;40.99;101727.25;5048006;28;19973;-60
2022/05/16 05:02:49;;;;;;;;;;;;;;;22.56;41.01;101723.78;5055779;28;19947;-60
2022/05/16 05:05:15;;;;;;;;;;;;;;;22.57;41.01;101715.03;5084561;28;19924;-66
2022/05/16 05:07:40;;;;;;;;;;;;;;;22.58;41.12;101706.31;5052852;28;20318;-63
2022/05/16 05:15:36;;;;;;;;;;;;;;;22.59;41.07;101692.31;5076558;28;20002;-61
2022/05/16 05:18:01;;;;;;;;;;;;;;;22.59;41.16;101698.47;5070917;28;19924;-60
2022/05/16 05:20:27;;;;;;;;;;;;;;;22.58;41.20;101686.19;5068236;28;19927;-60
2022/05/16 05:22:52;;;;;;;;;;;;;;;22.59;41.23;101697.56;5072635;28;19916;-61
2022/05/16 05:25:18;;;;;;;;;;;;;;;22.59;41.13;101687.06;5087378;28;19959;-59
2022/05/16 05:27:44;;;;;;;;;;;;;;;22.59;41.13;101693.22;5067320;28;19962;-59
2022/05/16 05:30:11;;;;;;;;;;;;;;;22.58;40.82;101695.81;5049319;28;19916;-59
2022/05/16 05:32:36;;;;;;;;;;;;;;;22.58;41.26;101690.56;5072077;28;19916;-61
2022/05/16 05:35:04;;;;;;;;;;;;;;;22.60;41.03;101688.84;4918791;22;19921;-51
2022/05/16 05:37:30;;;;;;;;;;;;;;;22.59;41.11;101682.72;5002112;28;19919;-48
2022/05/16 05:39:58;;;;;;;;;;;;;;;22.60;41.13;101683.59;5016864;28;19921;-53
2022/05/16 05:42:24;;;;;;;;;;;;;;;22.60;41.25;101680.97;5001560;28;19964;-52
2022/05/16 05:44:52;;;;;;;;;;;;;;;22.59;41.03;101681.81;5017101;28;19960;-48
2022/05/16 05:47:17;;;;;;;;;;;;;;;22.59;41.29;101682.72;5034515;28;19923;-51
2022/05/16 05:49:43;;;;;;;;;;;;;;;22.60;41.00;101678.34;5008618;28;20024;-48
2022/05/16 05:52:08;;;;;;;;;;;;;;;22.60;41.24;101673.09;5016983;28;19917;-51
2022/05/16 05:54:33;;;;;;;;;;;;;;;22.60;41.30;101678.34;4999296;28;19940;-54
2022/05/16 05:56:58;;;;;;;;;;;;;;;22.61;41.18;101674.84;5000486;28;19913;-51
2022/05/16 05:59:24;;;;;;;;;;;;;;;22.60;41.35;101671.34;5015162;28;20033;-53
2022/05/16 06:01:49;;;;;;;;;;;;;;;22.61;41.11;101669.59;5013349;28;20012;-49
2022/05/16 06:04:14;;;;;;;;;;;;;;;22.59;41.20;101666.97;5031621;28;19920;-51
2022/05/16 06:06:42;;;;;;;;;;;;;;;22.60;41.40;101673.97;5013469;28;19966;-54
2022/05/16 06:09:07;;;;;;;;;;;;;;;22.61;41.28;101670.50;5012125;28;20015;-51
2022/05/16 06:11:38;;;;;;;;;;;;;;;22.60;40.83;101678.34;5014146;28;19979;-53
2022/05/16 06:14:06;;;;;;;;;;;;;;;22.61;41.07;101666.97;5028536;28;19924;-50
2022/05/16 06:16:32;;;;;;;;;;;;;;;22.60;41.32;101667.84;4999329;28;19917;-50
2022/05/16 06:19:00;;;;;;;;;;;;;;;22.60;41.00;101673.09;5014140;28;19924;-56
2022/05/16 06:21:28;;;;;;;;;;;;;;;22.59;41.06;101676.56;5012337;28;19924;-56
2022/05/16 06:23:53;;;;;;;;;;;;;;;22.60;41.25;101673.09;5001228;28;20023;-55
2022/05/16 06:26:18;;;;;;;;;;;;;;;22.60;41.07;101667.84;4998647;28;20059;-55
2022/05/16 06:28:46;;;;;;;;;;;;;;;22.60;41.20;101678.34;4998219;28;19924;-54
2022/05/16 06:31:12;;;;;;;;;;;;;;;22.59;41.26;101680.09;5015149;28;19917;-56
2022/05/16 06:33:38;;;;;;;;;;;;;;;22.59;41.08;101677.47;5012180;28;19924;-50
2022/05/16 06:36:06;;;;;;;;;;;;;;;22.60;41.24;101678.34;4995699;28;20576;-57
2022/05/16 06:38:34;;;;;;;;;;;;;;;22.60;41.16;101683.59;4998274;28;19924;-52
2022/05/16 06:40:59;;;;;;;;;;;;;;;22.60;41.30;101683.59;5034433;28;20555;-50
2022/05/16 06:43:26;;;;;;;;;;;;;;;22.59;41.24;101676.56;5016994;28;19928;-54
2022/05/16 06:45:52;;;;;;;;;;;;;;;22.59;41.39;101687.06;4996715;28;19917;-56
2022/05/16 06:48:20;;;;;;;;;;;;;;;22.59;41.14;101687.06;5000201;28;19913;-50
2022/05/16 06:50:46;;;;;;;;;;;;;;;22.58;41.19;101685.31;5016696;28;20384;-49
2022/05/16 06:53:17;;;;;;;;;;;;;;;22.59;41.26;101681.81;5015549;28;19917;-53
2022/05/16 06:55:45;;;;;;;;;;;;;;;22.58;41.30;101673.06;5000466;28;19924;-56
2022/05/16 06:58:10;;;;;;;;;;;;;;;22.58;41.09;101674.81;5012790;28;20011;-52
2022/05/16 07:00:37;;;;;;;;;;;;;;;22.57;41.05;101679.19;4999002;28;20019;-52
2022/05/16 07:03:06;;;;;;;;;;;;;;;22.57;41.15;101680.91;5015500;28;20474;-49
2022/05/16 07:05:31;;;;;;;;;;;;;;;22.58;40.99;101680.94;5014064;28;19959;-48
2022/05/16 07:08:01;;;;;;;;;;;;;;;22.58;41.25;101674.81;4993442;28;19921;-52
2022/05/16 07:10:27;;;;;;;;;;;;;;;22.58;41.33;101674.81;5005458;28;19917;-53
2022/05/16 07:12:52;;;;;;;;;;;;;;;22.58;41.17;101674.81;5009107;28;20286;-51
2022/05/16 07:15:19;;;;;;;;;;;;;;;22.58;41.19;101680.06;4997068;28;19968;-50
2022/05/16 07:17:44;;;;;;;;;;;;;;;22.59;41.22;101679.19;5015814;28;19917;-55
2022/05/16 07:20:10;;;;;;;;;;;;;;;22.59;41.13;101681.81;5013459;28;19967;-50
2022/05/16 07:22:35;;;;;;;;;;;;;;;22.60;41.12;101678.34;4998920;28;20340;-52
2022/05/16 07:25:00;;;;;;;;;;;;;;;22.61;41.30;101674.84;5019829;28;20337;-54
2022/05/16 07:30:12;;;;;;;;;;;;;;;22.59;41.36;101666.97;5017727;28;19971;-54
2022/05/16 07:32:41;;;;;;;;;;;;;;;22.59;41.14;101666.06;4999008;28;19916;-53
2022/05/16 07:35:07;;;;;;;;;;;;;;;22.58;40.96;101675.69;5031472;28;19917;-57
2022/05/16 07:37:32;;;;;;;;;;;;;;;22.57;41.11;101668.69;5004645;28;20270;-55
2022/05/16 07:40:00;;;;;;;;;;;;;;;22.60;41.01;101678.34;5032962;28;20354;-54
2022/05/16 07:42:25;;;;;;;;;;;;;;;22.59;40.94;101672.22;5009523;28;19967;-57
2022/05/16 07:44:51;;;;;;;;;;;;;;;22.61;40.99;101680.09;5012191;28;19921;-54
2022/05/16 07:47:16;;;;;;;;;;;;;;;22.61;41.17;101670.50;5028780;28;19917;-52
2022/05/16 07:49:41;;;;;;;;;;;;;;;22.61;41.00;101674.84;5028809;28;20443;-49
2022/05/16 07:52:07;;;;;;;;;;;;;;;22.61;41.15;101666.97;5015268;28;19917;-51
2022/05/16 07:54:32;;;;;;;;;;;;;;;22.61;41.09;101664.34;5016546;28;19924;-49
2022/05/16 07:57:03;;;;;;;;;;;;;;;22.60;41.06;101658.22;5013276;28;19924;-49
2022/05/16 07:59:30;;;;;;;;;;;;;;;22.61;41.04;101661.72;5032458;28;19917;-51
2022/05/16 08:01:56;;;;;;;;;;;;;;;22.60;40.89;101652.97;5014204;28;19921;-54
2022/05/16 08:04:21;;;;;;;;;;;;;;;22.61;41.17;101653.84;5026195;28;19924;-55
2022/05/16 08:06:47;;;;;;;;;;;;;;;22.61;41.15;101643.34;5010235;28;19917;-52
2022/05/16 08:11:57;;;;;;;;;;;;;;;22.61;41.13;101641.63;5009525;28;20389;-53
2022/05/16 08:14:22;;;;;;;;;;;;;;;22.62;40.88;101639.84;4992500;28;19928;-48
2022/05/16 08:16:48;;;;;;;;;;;;;;;22.62;41.08;101645.09;4990761;28;19917;-51
2022/05/16 08:19:13;;;;;;;;;;;;;;;22.63;41.08;101652.13;4994981;28;19928;-50
2022/05/16 08:21:41;;;;;;;;;;;;;;;22.63;40.99;101651.25;4997512;28;20325;-52
2022/05/16 08:24:12;;;;;;;;;;;;;;;22.62;41.24;101650.38;5015517;28;19940;-51
2022/05/16 08:26:38;;;;;;;;;;;;;;;22.63;40.97;101651.25;5014983;28;20329;-53
2022/05/16 08:29:03;;;;;;;;;;;;;;;22.62;40.88;101645.09;4998422;28;19967;-52
2022/05/16 08:31:28;;;;;;;;;;;;;;;22.63;41.09;101652.13;5013540;28;20250;-51
2022/05/16 08:33:54;;;;;;;;;;;;;;;22.63;41.11;101646.88;4998048;28;19971;-49
2022/05/16 08:41:52;;;;;;;;;;;;;;;22.64;40.85;101648.63;5013596;28;20002;-51
2022/05/16 08:44:41;;;;;;;;;;;;;;;22.65;41.14;101645.16;5013762;28;19921;-53
2022/05/16 08:47:09;;;;;;;;;;;;;;;22.66;41.09;101631.16;5021043;28;19992;-54
2022/05/16 08:49:40;;;;;;;;;;;;;;;22.66;40.85;101631.16;5014104;28;19917;-50
2022/05/16 08:52:29;;;;;;;;;;;;;;;22.66;40.79;101636.41;5023588;28;20404;-47
2022/05/16 08:54:57;;;;;;;;;;;;;;;22.66;40.85;101625.91;4991901;28;19923;-51
2022/05/16 08:57:43;;;;;;;;;;;;;;;22.65;41.03;101634.66;4995417;28;19981;-52
2022/05/16 09:00:24;;;;;;;;;;;;;;;22.66;40.86;101625.91;4981220;28;20007;-54
2022/05/16 09:02:49;;;;;;;;;;;;;;;22.65;40.97;101629.41;5003460;28;20012;-53
2022/05/16 09:05:19;;;;;;;;;;;;;;;22.65;41.04;101629.41;5012879;28;20004;-52
2022/05/16 09:07:48;;;;;;;;;;;;;;;22.66;41.13;101631.16;5013972;28;20039;-52
2022/05/16 09:10:18;;;;;;;;;;;;;;;22.65;41.17;101629.41;5008249;28;19913;-49
2022/05/16 09:12:50;;;;;;;;;;;;;;;22.65;40.74;101624.16;5009671;28;19916;-52
2022/05/16 09:15:40;;;;;;;;;;;;;;;22.66;40.92;101625.91;5004891;28;19921;-52
2022/05/16 09:18:17;;;;;;;;;;;;;;;22.66;41.04;101617.19;5027815;28;20165;-51
2022/05/16 09:20:49;;;;;;;;;;;;;;;22.66;41.17;101625.91;5012936;28;19932;-48
2022/05/16 09:23:37;;;;;;;;;;;;;;;22.66;40.82;101636.41;5009027;28;19917;-51
2022/05/16 09:26:03;;;;;;;;;;;;;;;22.66;40.84;101625.91;4995686;28;19956;-50
2022/05/16 09:28:37;;;;;;;;;;;;;;;22.67;41.02;101622.44;5033433;28;19986;-54
2022/05/16 09:31:14;;;;;;;;;;;;;;;22.66;40.86;101620.66;5008059;28;19917;-54
2022/05/16 09:33:43;;;;;;;;;;;;;;;22.67;41.00;101617.19;5011023;28;20435;-55
2022/05/16 09:36:12;;;;;;;;;;;;;;;22.66;40.82;101618.03;5011652;28;19924;-53
2022/05/16 09:38:43;;;;;;;;;;;;;;;22.67;40.78;101617.19;4995902;28;19917;-53
2022/05/16 09:41:28;;;;;;;;;;;;;;;22.67;40.92;101622.44;5010532;28;20028;-49
2022/05/16 09:44:14;;;;;;;;;;;;;;;22.67;40.89;101611.94;4998101;28;19975;-53
2022/05/16 09:46:40;;;;;;;;;;;;;;;22.68;41.06;101608.44;5013337;28;19957;-54
2022/05/16 09:49:25;;;;;;;;;;;;;;;22.69;40.81;101610.22;5013588;28;19972;-54
2022/05/16 09:51:54;;;;;;;;;;;;;;;22.69;40.87;101599.69;5015656;28;19956;-52
2022/05/16 09:54:31;;;;;;;;;;;;;;;22.70;40.77;101596.22;5024442;28;19925;-51
2022/05/16 09:57:06;;;;;;;;;;;;;;;22.71;41.12;101592.72;5008450;28;20312;-55
2022/05/16 09:59:32;;;;;;;;;;;;;;;22.72;40.66;101594.50;5034308;28;19959;-57
2022/05/16 10:02:01;;;;;;;;;;;;;;;22.73;40.78;101585.75;5030981;28;19968;-54
2022/05/16 10:04:26;;;;;;;;;;;;;;;22.74;40.75;101582.25;5016654;28;19974;-53
2022/05/16 10:06:55;;;;;;;;;;;;;;;22.74;40.68;101587.53;5001554;28;19913;-54
2022/05/16 10:09:29;;;;;;;;;;;;;;;22.74;41.07;101579.63;5000251;28;19917;-48
2022/05/16 10:11:55;;;;;;;;;;;;;;;22.74;40.67;101582.25;5016960;28;19916;-51
2022/05/16 10:14:20;;;;;;;;;;;;;;;22.75;40.67;101568.28;5015698;28;20369;-53
2022/05/16 10:16:47;;;;;;;;;;;;;;;22.76;40.86;101588.41;5032087;28;20315;-51
2022/05/16 10:19:15;;;;;;;;;;;;;;;22.77;40.75;101586.69;5016108;28;19934;-52
2022/05/16 10:21:50;;;;;;;;;;;;;;;22.77;40.85;101591.94;4995889;28;19979;-49
2022/05/16 10:24:15;;;;;;;;;;;;;;;22.79;40.73;101578.81;5000398;28;20299;-50
2022/05/16 10:26:42;;;;;;;;;;;;;;;22.80;40.71;101580.59;4998417;28;20328;-53
2022/05/16 10:29:08;;;;;;;;;;;;;;;22.80;40.79;101559.56;5031225;28;19917;-53
2022/05/16 10:34:22;;;;;;;;;;;;;;;22.81;41.02;101577.13;5019451;28;19924;-50
2022/05/16 10:36:49;;;;;;;;;;;;;;;22.82;41.18;101568.38;5015381;28;19967;-52
2022/05/16 10:39:16;;;;;;;;;;;;;;;22.83;40.56;101564.91;5018580;28;19920;-52
2022/05/16 10:41:50;;;;;;;;;;;;;;;22.82;40.72;101558.75;5015965;28;19917;-49
2022/05/16 10:44:18;;;;;;;;;;;;;;;22.84;40.70;101558.78;5017531;28;20297;-51
2022/05/16 10:46:45;;;;;;;;;;;;;;;22.85;40.70;101557.91;5032176;28;19917;-51
2022/05/16 10:49:19;;;;;;;;;;;;;;;22.88;40.67;101555.34;5031501;28;20008;-56
2022/05/16 10:52:04;;;;;;;;;;;;;;;22.87;40.90;101550.94;5032254;28;20373;-56
2022/05/16 10:54:32;;;;;;;;;;;;;;;22.89;40.78;101543.97;5026485;28;19913;-52
2022/05/16 10:56:57;;;;;;;;;;;;;;;22.90;40.74;101545.72;5032373;28;19913;-52
2022/05/16 10:59:25;;;;;;;;;;;;;;;22.90;40.99;101545.72;5029753;28;20358;-55
2022/05/16 11:02:13;;;;;;;;;;;;;;;22.91;41.01;101550.13;5033132;28;19917;-55
2022/05/16 11:04:51;;;;;;;;;;;;;;;22.92;40.88;101549.25;5029966;28;19917;-54
2022/05/16 11:07:20;;;;;;;;;;;;;;;22.93;40.61;101551.03;5015930;28;19928;-54
2022/05/16 11:10:08;;;;;;;;;;;;;;;22.93;40.36;101551.03;5024419;28;19948;-54
2022/05/16 11:12:34;;;;;;;;;;;;;;;22.93;40.58;101545.75;5020431;28;19913;-51
2022/05/16 11:14:59;;;;;;;;;;;;;;;22.95;40.72;101532.63;5033620;28;19923;-51
2022/05/16 11:17:26;;;;;;;;;;;;;;;22.94;40.63;101531.78;5031832;28;19970;-53
2022/05/16 11:20:12;;;;;;;;;;;;;;;22.94;40.57;101516.00;5032140;28;19913;-53
2022/05/16 11:22:41;;;;;;;;;;;;;;;22.95;40.89;101523.03;5030807;28;19924;-52
2022/05/16 11:25:11;;;;;;;;;;;;;;;22.96;41.07;101524.78;5000967;28;20423;-52
2022/05/16 11:27:37;;;;;;;;;;;;;;;22.98;40.54;101512.56;4998770;28;19917;-52
2022/05/16 11:30:02;;;;;;;;;;;;;;;22.99;40.57;101513.41;5033316;28;19974;-53
2022/05/16 11:32:30;;;;;;;;;;;;;;;22.99;40.94;101516.03;5027965;28;19917;-52
2022/05/16 11:35:25;;;;;;;;;;;;;;;23.00;40.48;101495.06;5032283;28;19921;-54
2022/05/16 11:37:59;;;;;;;;;;;;;;;23.02;40.81;101493.34;5012605;28;19917;-51
2022/05/16 11:40:30;;;;;;;;;;;;;;;23.03;40.31;101492.47;4994099;28;20353;-50
2022/05/16 11:43:10;;;;;;;;;;;;;;;23.04;40.35;101486.34;5026822;28;20004;-51
2022/05/16 11:45:48;;;;;;;;;;;;;;;23.05;40.31;101488.13;5029563;28;19921;-60
2022/05/16 11:48:13;;;;;;;;;;;;;;;23.06;40.65;101475.84;5029540;28;20082;-53
2022/05/16 11:50:42;;;;;;;;;;;;;;;23.07;40.52;101495.13;5023603;28;19940;-50
2022/05/16 11:53:26;;;;;;;;;;;;;;;23.08;40.39;101489.00;5005054;28;19966;-55
2022/05/16 12:01:31;;;;;;;;;;;;;;;23.09;41.09;101498.66;5010052;28;20009;-56
2022/05/16 12:04:08;;;;;;;;;;;;;;;23.12;40.80;101509.19;5014867;28;19917;-54
2022/05/16 12:06:34;;;;;;;;;;;;;;;23.14;40.84;101502.22;5031530;28;20289;-58
2022/05/16 12:09:32;;;;;;;;;;;;;;;23.15;41.14;101493.47;5032387;28;20370;-53
2022/05/16 12:12:02;;;;;;;;;;;;;;;23.35;40.39;101504.22;4966867;28;19917;-59
2022/05/16 12:14:33;;;;;;;;;;;;;;;23.48;40.89;101507.84;5015948;28;19913;-59
2022/05/16 12:16:58;;;;;;;;;;;;;;;23.61;39.61;101504.44;4998413;28;19949;-60
2022/05/16 12:19:25;;;;;;;;;;;;;;;23.76;40.29;101508.06;5032549;28;19987;-60
2022/05/16 12:21:54;;;;;;;;;;;;;;;23.83;40.42;101498.50;5014315;28;20314;-60
2022/05/16 12:24:24;;;;;;;;;;;;;;;23.92;40.36;101494.19;5008747;28;20011;-60
2022/05/16 12:26:59;;;;;;;;;;;;;;;23.98;39.49;101481.94;5030039;28;20019;-55
2022/05/16 12:29:44;;;;;;;;;;;;;;;24.00;39.66;101488.13;5029764;28;20377;-58
2022/05/16 12:32:18;;;;;;;;;;;;;;;24.04;39.61;101487.28;5024277;28;19916;-60
2022/05/16 12:34:44;;;;;;;;;;;;;;;23.99;39.18;101489.84;5018631;28;19924;-54
2022/05/16 12:37:12;;;;;;;;;;;;;;;23.97;39.01;101485.44;5001858;28;19917;-57
2022/05/16 12:39:53;;;;;;;;;;;;;;;23.89;39.13;101483.66;4998006;28;19924;-59
2022/05/16 12:42:18;;;;;;;;;;;;;;;23.79;39.17;101471.28;5009769;28;20434;-59
2022/05/16 12:44:47;;;;;;;;;;;;;;;23.72;39.70;101472.09;5030349;28;19976;-57
2022/05/16 12:47:18;;;;;;;;;;;;;;;23.64;39.43;101478.16;5012711;28;20449;-59
2022/05/16 12:50:02;;;;;;;;;;;;;;;23.60;39.99;101471.13;5030690;28;19917;-58
2022/05/16 12:52:34;;;;;;;;;;;;;;;23.58;39.93;101466.75;5024359;28;19917;-59
2022/05/16 12:55:11;;;;;;;;;;;;;;;23.56;40.07;101464.09;5029403;28;19917;-59
2022/05/16 12:57:36;;;;;;;;;;;;;;;23.54;39.39;101471.06;5030208;28;19943;-59
2022/05/16 13:00:22;;;;;;;;;;;;;;;23.51;40.25;101465.78;5031725;28;20366;-58
2022/05/16 13:02:51;;;;;;;;;;;;;;;23.52;39.99;101462.31;4995325;28;19920;-59
2022/05/16 13:05:22;;;;;;;;;;;;;;;23.49;39.89;101468.44;5010678;28;20347;-59
2022/05/16 13:08:01;;;;;;;;;;;;;;;23.50;40.59;101448.25;4992366;28;20011;-58
2022/05/16 13:10:30;;;;;;;;;;;;;;;23.48;40.41;101460.50;5011947;28;20036;-59
2022/05/16 13:12:55;;;;;;;;;;;;;;;23.47;40.13;101464.00;5013004;28;20403;-59
2022/05/16 13:15:27;;;;;;;;;;;;;;;23.47;40.33;101453.50;5012520;28;19916;-59
2022/05/16 13:17:54;;;;;;;;;;;;;;;23.46;40.22;101457.00;5030609;28;20326;-60
2022/05/16 13:20:20;;;;;;;;;;;;;;;23.46;40.29;101451.72;5033365;28;19979;-59